sensor_id;sensor_type;location;lat;lon;timestamp;P1;durP1;ratioP1;P2;durP2;ratioP2
8652;SDS011;4364;52.426;9.424;2022-12-19T00:01:26;22.30;;;11.73;;
8652;SDS011;4364;52.426;9.424;2022-12-19T00:04:06;22.67;;;11.83;;
8652;SDS011;4364;52.426;9.424;2022-12-19T00:06:35;24.97;;;11.97;;
8652;SDS011;4364;52.426;9.424;2022-12-19T00:09:09;23.67;;;11.73;;
8652;SDS011;4364;52.426;9.424;2022-12-19T00:11:37;24.23;;;12.00;;
8652;SDS011;4364;52.426;9.424;2022-12-19T00:14:05;25.20;;;12.60;;
8652;SDS011;4364;52.426;9.424;2022-12-19T00:16:32;26.80;;;12.80;;
8652;SDS011;4364;52.426;9.424;2022-12-19T00:18:59;24.63;;;12.50;;
8652;SDS011;4364;52.426;9.424;2022-12-19T00:21:27;25.57;;;12.93;;
8652;SDS011;4364;52.426;9.424;2022-12-19T00:24:00;26.43;;;14.20;;
8652;SDS011;4364;52.426;9.424;2022-12-19T00:26:29;27.03;;;12.77;;
8652;SDS011;4364;52.426;9.424;2022-12-19T00:28:57;27.23;;;13.83;;
8652;SDS011;4364;52.426;9.424;2022-12-19T00:31:28;24.57;;;13.93;;
8652;SDS011;4364;52.426;9.424;2022-12-19T00:33:57;26.13;;;14.40;;
8652;SDS011;4364;52.426;9.424;2022-12-19T00:36:25;28.37;;;14.53;;
8652;SDS011;4364;52.426;9.424;2022-12-19T00:38:58;27.83;;;14.40;;
8652;SDS011;4364;52.426;9.424;2022-12-19T00:41:27;28.23;;;14.10;;
8652;SDS011;4364;52.426;9.424;2022-12-19T00:43:56;24.87;;;13.87;;
8652;SDS011;4364;52.426;9.424;2022-12-19T00:46:24;27.30;;;14.07;;
8652;SDS011;4364;52.426;9.424;2022-12-19T00:48:52;26.53;;;14.13;;
8652;SDS011;4364;52.426;9.424;2022-12-19T00:51:22;28.03;;;13.93;;
8652;SDS011;4364;52.426;9.424;2022-12-19T00:53:51;31.47;;;14.37;;
8652;SDS011;4364;52.426;9.424;2022-12-19T00:56:20;28.43;;;14.27;;
8652;SDS011;4364;52.426;9.424;2022-12-19T00:58:49;25.57;;;13.83;;
8652;SDS011;4364;52.426;9.424;2022-12-19T01:01:36;28.53;;;15.50;;
8652;SDS011;4364;52.426;9.424;2022-12-19T01:04:05;27.17;;;14.27;;
8652;SDS011;4364;52.426;9.424;2022-12-19T01:06:53;27.87;;;14.07;;
8652;SDS011;4364;52.426;9.424;2022-12-19T01:09:30;26.77;;;14.73;;
8652;SDS011;4364;52.426;9.424;2022-12-19T01:11:58;33.07;;;15.60;;
8652;SDS011;4364;52.426;9.424;2022-12-19T01:14:43;30.03;;;15.23;;
8652;SDS011;4364;52.426;9.424;2022-12-19T01:17:10;29.80;;;15.20;;
8652;SDS011;4364;52.426;9.424;2022-12-19T01:19:36;32.30;;;16.73;;
8652;SDS011;4364;52.426;9.424;2022-12-19T01:22:09;31.40;;;16.53;;
8652;SDS011;4364;52.426;9.424;2022-12-19T01:24:37;33.37;;;16.13;;
8652;SDS011;4364;52.426;9.424;2022-12-19T01:27:04;29.60;;;15.37;;
8652;SDS011;4364;52.426;9.424;2022-12-19T01:29:31;30.37;;;16.03;;
8652;SDS011;4364;52.426;9.424;2022-12-19T01:31:59;30.60;;;15.30;;
8652;SDS011;4364;52.426;9.424;2022-12-19T01:34:30;30.53;;;14.97;;
8652;SDS011;4364;52.426;9.424;2022-12-19T01:36:56;30.77;;;16.80;;
8652;SDS011;4364;52.426;9.424;2022-12-19T01:39:23;32.20;;;15.73;;
8652;SDS011;4364;52.426;9.424;2022-12-19T01:41:52;31.40;;;16.57;;
8652;SDS011;4364;52.426;9.424;2022-12-19T01:44:19;31.93;;;15.90;;
8652;SDS011;4364;52.426;9.424;2022-12-19T01:46:49;29.67;;;14.77;;
8652;SDS011;4364;52.426;9.424;2022-12-19T01:49:25;31.13;;;16.37;;
8652;SDS011;4364;52.426;9.424;2022-12-19T01:51:59;31.63;;;16.13;;
8652;SDS011;4364;52.426;9.424;2022-12-19T01:54:30;33.83;;;17.07;;
8652;SDS011;4364;52.426;9.424;2022-12-19T01:57:01;29.10;;;15.80;;
8652;SDS011;4364;52.426;9.424;2022-12-19T01:59:33;30.90;;;15.50;;
8652;SDS011;4364;52.426;9.424;2022-12-19T02:02:07;31.00;;;15.60;;
8652;SDS011;4364;52.426;9.424;2022-12-19T02:04:39;35.57;;;16.50;;
8652;SDS011;4364;52.426;9.424;2022-12-19T02:07:07;30.27;;;16.40;;
8652;SDS011;4364;52.426;9.424;2022-12-19T02:09:43;34.50;;;16.13;;
8652;SDS011;4364;52.426;9.424;2022-12-19T02:12:12;30.80;;;15.87;;
8652;SDS011;4364;52.426;9.424;2022-12-19T02:14:39;30.30;;;15.80;;
8652;SDS011;4364;52.426;9.424;2022-12-19T02:37:03;31.93;;;16.40;;
8652;SDS011;4364;52.426;9.424;2022-12-19T02:42:16;32.97;;;16.20;;
8652;SDS011;4364;52.426;9.424;2022-12-19T02:45:00;28.40;;;15.53;;
8652;SDS011;4364;52.426;9.424;2022-12-19T02:47:30;31.43;;;16.50;;
8652;SDS011;4364;52.426;9.424;2022-12-19T02:49:59;30.93;;;15.30;;
8652;SDS011;4364;52.426;9.424;2022-12-19T02:54:55;31.63;;;15.97;;
8652;SDS011;4364;52.426;9.424;2022-12-19T02:57:36;31.23;;;17.17;;
8652;SDS011;4364;52.426;9.424;2022-12-19T03:00:17;32.80;;;16.43;;
8652;SDS011;4364;52.426;9.424;2022-12-19T03:05:31;32.03;;;16.00;;
8652;SDS011;4364;52.426;9.424;2022-12-19T03:08:36;33.87;;;17.57;;
8652;SDS011;4364;52.426;9.424;2022-12-19T03:11:19;29.47;;;15.70;;
8652;SDS011;4364;52.426;9.424;2022-12-19T03:16:45;29.97;;;15.43;;
8652;SDS011;4364;52.426;9.424;2022-12-19T03:19:12;32.70;;;16.87;;
8652;SDS011;4364;52.426;9.424;2022-12-19T03:21:44;31.53;;;16.87;;
8652;SDS011;4364;52.426;9.424;2022-12-19T03:24:13;30.17;;;15.40;;
8652;SDS011;4364;52.426;9.424;2022-12-19T03:26:55;31.17;;;16.57;;
8652;SDS011;4364;52.426;9.424;2022-12-19T03:31:56;32.70;;;16.90;;
8652;SDS011;4364;52.426;9.424;2022-12-19T03:34:30;29.90;;;15.37;;
8652;SDS011;4364;52.426;9.424;2022-12-19T03:37:12;27.47;;;15.53;;
8652;SDS011;4364;52.426;9.424;2022-12-19T03:39:42;31.70;;;16.60;;
8652;SDS011;4364;52.426;9.424;2022-12-19T03:42:12;31.80;;;16.20;;
8652;SDS011;4364;52.426;9.424;2022-12-19T03:45:00;30.07;;;15.93;;
8652;SDS011;4364;52.426;9.424;2022-12-19T03:50:07;33.10;;;17.17;;
8652;SDS011;4364;52.426;9.424;2022-12-19T03:52:37;31.10;;;16.77;;
8652;SDS011;4364;52.426;9.424;2022-12-19T03:55:17;33.37;;;16.93;;
8652;SDS011;4364;52.426;9.424;2022-12-19T03:57:50;31.17;;;16.73;;
8652;SDS011;4364;52.426;9.424;2022-12-19T04:00:22;29.97;;;15.53;;
8652;SDS011;4364;52.426;9.424;2022-12-19T04:02:52;34.07;;;17.00;;
8652;SDS011;4364;52.426;9.424;2022-12-19T04:05:21;34.30;;;17.43;;
8652;SDS011;4364;52.426;9.424;2022-12-19T04:07:50;31.20;;;16.37;;
8652;SDS011;4364;52.426;9.424;2022-12-19T04:10:21;32.97;;;17.40;;
8652;SDS011;4364;52.426;9.424;2022-12-19T04:13:02;30.90;;;17.03;;
8652;SDS011;4364;52.426;9.424;2022-12-19T04:18:22;32.80;;;16.20;;
8652;SDS011;4364;52.426;9.424;2022-12-19T04:21:00;38.80;;;18.90;;
8652;SDS011;4364;52.426;9.424;2022-12-19T04:23:31;31.57;;;16.17;;
8652;SDS011;4364;52.426;9.424;2022-12-19T04:26:03;35.57;;;17.17;;
8652;SDS011;4364;52.426;9.424;2022-12-19T04:28:34;32.80;;;17.97;;
8652;SDS011;4364;52.426;9.424;2022-12-19T04:31:05;33.97;;;16.93;;
8652;SDS011;4364;52.426;9.424;2022-12-19T04:33:32;33.43;;;17.67;;
8652;SDS011;4364;52.426;9.424;2022-12-19T04:35:58;36.30;;;18.10;;
8652;SDS011;4364;52.426;9.424;2022-12-19T04:38:26;33.67;;;16.63;;
8652;SDS011;4364;52.426;9.424;2022-12-19T04:40:53;34.63;;;17.90;;
8652;SDS011;4364;52.426;9.424;2022-12-19T04:43:19;34.90;;;16.93;;
8652;SDS011;4364;52.426;9.424;2022-12-19T04:45:46;32.23;;;16.93;;
8652;SDS011;4364;52.426;9.424;2022-12-19T04:48:19;34.30;;;17.23;;
8652;SDS011;4364;52.426;9.424;2022-12-19T04:50:45;33.87;;;17.80;;
8652;SDS011;4364;52.426;9.424;2022-12-19T04:53:12;31.50;;;16.67;;
8652;SDS011;4364;52.426;9.424;2022-12-19T04:55:38;32.17;;;17.43;;
8652;SDS011;4364;52.426;9.424;2022-12-19T04:58:06;32.37;;;16.63;;
8652;SDS011;4364;52.426;9.424;2022-12-19T05:00:33;35.43;;;17.70;;
8652;SDS011;4364;52.426;9.424;2022-12-19T05:02:59;32.60;;;17.90;;
8652;SDS011;4364;52.426;9.424;2022-12-19T05:05:26;36.30;;;17.43;;
8652;SDS011;4364;52.426;9.424;2022-12-19T05:07:54;34.40;;;17.43;;
8652;SDS011;4364;52.426;9.424;2022-12-19T05:10:21;36.13;;;17.73;;
8652;SDS011;4364;52.426;9.424;2022-12-19T05:12:47;33.33;;;17.43;;
8652;SDS011;4364;52.426;9.424;2022-12-19T05:15:14;32.37;;;17.30;;
8652;SDS011;4364;52.426;9.424;2022-12-19T05:17:40;30.97;;;17.67;;
8652;SDS011;4364;52.426;9.424;2022-12-19T05:20:07;33.67;;;17.03;;
8652;SDS011;4364;52.426;9.424;2022-12-19T05:22:34;34.83;;;17.57;;
8652;SDS011;4364;52.426;9.424;2022-12-19T05:25:01;35.80;;;16.93;;
8652;SDS011;4364;52.426;9.424;2022-12-19T05:27:27;32.40;;;17.60;;
8652;SDS011;4364;52.426;9.424;2022-12-19T05:29:53;33.40;;;16.93;;
8652;SDS011;4364;52.426;9.424;2022-12-19T05:32:20;32.93;;;17.07;;
8652;SDS011;4364;52.426;9.424;2022-12-19T05:34:46;35.07;;;17.13;;
8652;SDS011;4364;52.426;9.424;2022-12-19T05:37:13;31.47;;;17.27;;
8652;SDS011;4364;52.426;9.424;2022-12-19T05:39:39;29.90;;;16.83;;
8652;SDS011;4364;52.426;9.424;2022-12-19T05:42:06;30.50;;;16.67;;
8652;SDS011;4364;52.426;9.424;2022-12-19T05:44:37;31.73;;;16.53;;
8652;SDS011;4364;52.426;9.424;2022-12-19T05:47:04;32.47;;;16.53;;
8652;SDS011;4364;52.426;9.424;2022-12-19T05:49:30;32.13;;;16.53;;
8652;SDS011;4364;52.426;9.424;2022-12-19T05:51:57;32.33;;;17.10;;
8652;SDS011;4364;52.426;9.424;2022-12-19T05:54:24;32.10;;;16.73;;
8652;SDS011;4364;52.426;9.424;2022-12-19T05:56:51;34.37;;;17.27;;
8652;SDS011;4364;52.426;9.424;2022-12-19T05:59:17;37.23;;;18.43;;
8652;SDS011;4364;52.426;9.424;2022-12-19T06:01:44;33.63;;;17.50;;
8652;SDS011;4364;52.426;9.424;2022-12-19T06:04:11;31.20;;;17.27;;
8652;SDS011;4364;52.426;9.424;2022-12-19T06:06:37;32.57;;;16.83;;
8652;SDS011;4364;52.426;9.424;2022-12-19T06:09:04;35.77;;;18.17;;
8652;SDS011;4364;52.426;9.424;2022-12-19T06:11:30;35.63;;;18.90;;
8652;SDS011;4364;52.426;9.424;2022-12-19T06:13:57;35.00;;;18.90;;
8652;SDS011;4364;52.426;9.424;2022-12-19T06:16:23;35.97;;;18.83;;
8652;SDS011;4364;52.426;9.424;2022-12-19T06:18:50;34.20;;;18.30;;
8652;SDS011;4364;52.426;9.424;2022-12-19T06:21:18;41.27;;;19.20;;
8652;SDS011;4364;52.426;9.424;2022-12-19T06:23:46;35.63;;;18.57;;
8652;SDS011;4364;52.426;9.424;2022-12-19T06:26:15;38.30;;;19.17;;
8652;SDS011;4364;52.426;9.424;2022-12-19T06:28:49;35.83;;;19.80;;
8652;SDS011;4364;52.426;9.424;2022-12-19T06:31:20;35.13;;;20.00;;
8652;SDS011;4364;52.426;9.424;2022-12-19T06:33:50;35.87;;;20.30;;
8652;SDS011;4364;52.426;9.424;2022-12-19T06:36:23;36.83;;;18.57;;
8652;SDS011;4364;52.426;9.424;2022-12-19T06:38:53;38.23;;;18.17;;
8652;SDS011;4364;52.426;9.424;2022-12-19T06:41:20;39.17;;;18.43;;
8652;SDS011;4364;52.426;9.424;2022-12-19T06:44:06;38.27;;;19.67;;
8652;SDS011;4364;52.426;9.424;2022-12-19T06:46:36;40.30;;;20.77;;
8652;SDS011;4364;52.426;9.424;2022-12-19T06:49:03;37.20;;;19.60;;
8652;SDS011;4364;52.426;9.424;2022-12-19T06:51:30;41.10;;;20.27;;
8652;SDS011;4364;52.426;9.424;2022-12-19T06:53:57;44.50;;;20.53;;
8652;SDS011;4364;52.426;9.424;2022-12-19T06:56:24;41.23;;;20.60;;
8652;SDS011;4364;52.426;9.424;2022-12-19T06:58:51;36.70;;;19.07;;
8652;SDS011;4364;52.426;9.424;2022-12-19T07:04:09;37.23;;;20.20;;
8652;SDS011;4364;52.426;9.424;2022-12-19T07:06:40;40.00;;;19.53;;
8652;SDS011;4364;52.426;9.424;2022-12-19T07:09:13;40.93;;;20.80;;
8652;SDS011;4364;52.426;9.424;2022-12-19T07:11:40;34.97;;;19.97;;
8652;SDS011;4364;52.426;9.424;2022-12-19T07:14:06;39.10;;;19.80;;
8652;SDS011;4364;52.426;9.424;2022-12-19T07:16:35;40.77;;;20.30;;
8652;SDS011;4364;52.426;9.424;2022-12-19T07:19:03;40.07;;;20.77;;
8652;SDS011;4364;52.426;9.424;2022-12-19T07:21:30;41.77;;;21.10;;
8652;SDS011;4364;52.426;9.424;2022-12-19T07:23:57;41.83;;;21.37;;
8652;SDS011;4364;52.426;9.424;2022-12-19T07:26:24;40.93;;;20.67;;
8652;SDS011;4364;52.426;9.424;2022-12-19T07:28:51;44.33;;;22.27;;
8652;SDS011;4364;52.426;9.424;2022-12-19T07:31:19;41.33;;;21.13;;
8652;SDS011;4364;52.426;9.424;2022-12-19T07:33:45;40.90;;;20.93;;
8652;SDS011;4364;52.426;9.424;2022-12-19T07:36:12;44.53;;;21.67;;
8652;SDS011;4364;52.426;9.424;2022-12-19T07:38:38;43.07;;;21.33;;
8652;SDS011;4364;52.426;9.424;2022-12-19T07:41:05;42.40;;;21.63;;
8652;SDS011;4364;52.426;9.424;2022-12-19T07:43:31;43.80;;;23.50;;
8652;SDS011;4364;52.426;9.424;2022-12-19T07:45:57;43.40;;;23.77;;
8652;SDS011;4364;52.426;9.424;2022-12-19T07:48:24;42.93;;;22.07;;
8652;SDS011;4364;52.426;9.424;2022-12-19T07:50:51;44.53;;;22.23;;
8652;SDS011;4364;52.426;9.424;2022-12-19T07:53:17;41.53;;;22.00;;
8652;SDS011;4364;52.426;9.424;2022-12-19T07:55:44;39.83;;;21.53;;
8652;SDS011;4364;52.426;9.424;2022-12-19T07:58:11;43.17;;;21.93;;
8652;SDS011;4364;52.426;9.424;2022-12-19T08:00:37;41.60;;;21.30;;
8652;SDS011;4364;52.426;9.424;2022-12-19T08:03:04;43.47;;;22.67;;
8652;SDS011;4364;52.426;9.424;2022-12-19T08:05:33;45.37;;;21.77;;
8652;SDS011;4364;52.426;9.424;2022-12-19T08:08:00;38.83;;;21.07;;
8652;SDS011;4364;52.426;9.424;2022-12-19T08:10:27;40.97;;;20.83;;
8652;SDS011;4364;52.426;9.424;2022-12-19T08:12:53;37.67;;;20.50;;
8652;SDS011;4364;52.426;9.424;2022-12-19T08:15:20;44.63;;;22.30;;
8652;SDS011;4364;52.426;9.424;2022-12-19T08:17:46;41.80;;;21.30;;
8652;SDS011;4364;52.426;9.424;2022-12-19T08:20:13;40.43;;;21.13;;
8652;SDS011;4364;52.426;9.424;2022-12-19T08:22:39;40.90;;;20.87;;
8652;SDS011;4364;52.426;9.424;2022-12-19T08:25:06;38.37;;;21.33;;
8652;SDS011;4364;52.426;9.424;2022-12-19T08:27:33;41.67;;;20.97;;
8652;SDS011;4364;52.426;9.424;2022-12-19T08:30:00;42.33;;;22.90;;
8652;SDS011;4364;52.426;9.424;2022-12-19T08:32:27;40.87;;;21.57;;
8652;SDS011;4364;52.426;9.424;2022-12-19T08:34:55;37.97;;;20.97;;
8652;SDS011;4364;52.426;9.424;2022-12-19T08:37:22;37.80;;;19.80;;
8652;SDS011;4364;52.426;9.424;2022-12-19T08:39:48;39.17;;;20.53;;
8652;SDS011;4364;52.426;9.424;2022-12-19T08:42:15;40.20;;;21.23;;
8652;SDS011;4364;52.426;9.424;2022-12-19T08:44:41;35.47;;;19.53;;
8652;SDS011;4364;52.426;9.424;2022-12-19T08:47:08;36.57;;;20.13;;
8652;SDS011;4364;52.426;9.424;2022-12-19T08:49:34;35.47;;;20.13;;
8652;SDS011;4364;52.426;9.424;2022-12-19T08:52:01;39.67;;;20.67;;
8652;SDS011;4364;52.426;9.424;2022-12-19T08:54:27;38.47;;;19.87;;
8652;SDS011;4364;52.426;9.424;2022-12-19T08:56:54;39.57;;;20.03;;
8652;SDS011;4364;52.426;9.424;2022-12-19T08:59:20;42.67;;;21.67;;
8652;SDS011;4364;52.426;9.424;2022-12-19T09:01:58;37.57;;;19.97;;
8652;SDS011;4364;52.426;9.424;2022-12-19T09:04:26;33.67;;;18.23;;
8652;SDS011;4364;52.426;9.424;2022-12-19T09:07:13;34.90;;;19.27;;
8652;SDS011;4364;52.426;9.424;2022-12-19T09:09:41;32.83;;;18.27;;
8652;SDS011;4364;52.426;9.424;2022-12-19T09:12:08;34.23;;;19.80;;
8652;SDS011;4364;52.426;9.424;2022-12-19T09:14:34;30.13;;;16.83;;
8652;SDS011;4364;52.426;9.424;2022-12-19T09:17:01;30.10;;;16.93;;
8652;SDS011;4364;52.426;9.424;2022-12-19T09:19:30;28.23;;;16.10;;
8652;SDS011;4364;52.426;9.424;2022-12-19T09:21:57;25.53;;;15.00;;
8652;SDS011;4364;52.426;9.424;2022-12-19T09:24:23;25.47;;;15.03;;
8652;SDS011;4364;52.426;9.424;2022-12-19T09:26:50;27.70;;;15.60;;
8652;SDS011;4364;52.426;9.424;2022-12-19T09:29:16;25.50;;;15.63;;
8652;SDS011;4364;52.426;9.424;2022-12-19T09:31:47;26.00;;;15.13;;
8652;SDS011;4364;52.426;9.424;2022-12-19T09:34:25;26.07;;;15.13;;
8652;SDS011;4364;52.426;9.424;2022-12-19T09:37:07;28.37;;;14.60;;
8652;SDS011;4364;52.426;9.424;2022-12-19T09:39:41;24.53;;;14.93;;
8652;SDS011;4364;52.426;9.424;2022-12-19T09:42:54;24.80;;;13.97;;
8652;SDS011;4364;52.426;9.424;2022-12-19T09:45:13;22.90;;;13.67;;
8652;SDS011;4364;52.426;9.424;2022-12-19T09:47:58;23.30;;;13.67;;
8652;SDS011;4364;52.426;9.424;2022-12-19T09:50:41;24.60;;;14.00;;
8652;SDS011;4364;52.426;9.424;2022-12-19T09:53:30;23.57;;;13.97;;
8652;SDS011;4364;52.426;9.424;2022-12-19T09:56:04;24.50;;;14.90;;
8652;SDS011;4364;52.426;9.424;2022-12-19T09:58:46;25.23;;;14.60;;
8652;SDS011;4364;52.426;9.424;2022-12-19T10:01:23;24.93;;;14.40;;
8652;SDS011;4364;52.426;9.424;2022-12-19T10:04:02;23.87;;;14.47;;
8652;SDS011;4364;52.426;9.424;2022-12-19T10:06:38;22.50;;;13.63;;
8652;SDS011;4364;52.426;9.424;2022-12-19T10:09:29;21.83;;;13.40;;
8652;SDS011;4364;52.426;9.424;2022-12-19T10:20:36;23.57;;;13.00;;
8652;SDS011;4364;52.426;9.424;2022-12-19T10:23:24;20.33;;;12.40;;
8652;SDS011;4364;52.426;9.424;2022-12-19T10:26:19;18.70;;;12.10;;
8652;SDS011;4364;52.426;9.424;2022-12-19T10:29:02;21.07;;;12.87;;
8652;SDS011;4364;52.426;9.424;2022-12-19T10:34:33;21.57;;;12.77;;
8652;SDS011;4364;52.426;9.424;2022-12-19T10:37:20;19.67;;;12.63;;
8652;SDS011;4364;52.426;9.424;2022-12-19T10:40:10;21.03;;;13.30;;
8652;SDS011;4364;52.426;9.424;2022-12-19T10:46:00;20.93;;;12.53;;
8652;SDS011;4364;52.426;9.424;2022-12-19T10:48:36;20.60;;;13.13;;
8652;SDS011;4364;52.426;9.424;2022-12-19T10:51:03;22.10;;;13.00;;
8652;SDS011;4364;52.426;9.424;2022-12-19T10:53:32;22.63;;;14.10;;
8652;SDS011;4364;52.426;9.424;2022-12-19T10:56:00;19.73;;;12.43;;
8652;SDS011;4364;52.426;9.424;2022-12-19T10:58:36;20.93;;;14.13;;
8652;SDS011;4364;52.426;9.424;2022-12-19T11:03:36;24.17;;;14.40;;
8652;SDS011;4364;52.426;9.424;2022-12-19T11:06:04;20.80;;;13.60;;
8652;SDS011;4364;52.426;9.424;2022-12-19T11:08:35;21.17;;;13.50;;
8652;SDS011;4364;52.426;9.424;2022-12-19T11:13:51;22.17;;;14.37;;
8652;SDS011;4364;52.426;9.424;2022-12-19T11:16:37;21.53;;;14.70;;
8652;SDS011;4364;52.426;9.424;2022-12-19T11:25:00;22.23;;;14.33;;
8652;SDS011;4364;52.426;9.424;2022-12-19T11:27:47;25.07;;;14.80;;
8652;SDS011;4364;52.426;9.424;2022-12-19T11:30:34;24.27;;;14.47;;
8652;SDS011;4364;52.426;9.424;2022-12-19T11:33:20;22.57;;;15.13;;
8652;SDS011;4364;52.426;9.424;2022-12-19T11:35:53;23.33;;;15.27;;
8652;SDS011;4364;52.426;9.424;2022-12-19T11:38:31;27.37;;;17.13;;
8652;SDS011;4364;52.426;9.424;2022-12-19T11:41:12;25.43;;;16.13;;
8652;SDS011;4364;52.426;9.424;2022-12-19T11:49:50;25.93;;;16.53;;
8652;SDS011;4364;52.426;9.424;2022-12-19T11:55:41;25.77;;;16.03;;
8652;SDS011;4364;52.426;9.424;2022-12-19T11:58:11;28.67;;;16.77;;
8652;SDS011;4364;52.426;9.424;2022-12-19T12:00:39;28.33;;;17.33;;
8652;SDS011;4364;52.426;9.424;2022-12-19T12:05:53;27.80;;;17.03;;
8652;SDS011;4364;52.426;9.424;2022-12-19T12:14:29;32.67;;;19.17;;
8652;SDS011;4364;52.426;9.424;2022-12-19T12:17:31;30.43;;;16.87;;
8652;SDS011;4364;52.426;9.424;2022-12-19T12:30:08;27.03;;;16.07;;
8652;SDS011;4364;52.426;9.424;2022-12-19T12:36:36;29.70;;;17.50;;
8652;SDS011;4364;52.426;9.424;2022-12-19T12:45:21;28.00;;;17.07;;
8652;SDS011;4364;52.426;9.424;2022-12-19T12:47:52;28.77;;;17.80;;
8652;SDS011;4364;52.426;9.424;2022-12-19T12:50:23;30.37;;;18.47;;
8652;SDS011;4364;52.426;9.424;2022-12-19T12:52:55;27.40;;;17.80;;
8652;SDS011;4364;52.426;9.424;2022-12-19T12:58:05;33.10;;;19.53;;
8652;SDS011;4364;52.426;9.424;2022-12-19T13:03:50;31.07;;;17.93;;
8652;SDS011;4364;52.426;9.424;2022-12-19T13:06:37;31.30;;;18.53;;
8652;SDS011;4364;52.426;9.424;2022-12-19T13:11:36;31.63;;;18.33;;
8652;SDS011;4364;52.426;9.424;2022-12-19T13:17:02;31.33;;;17.80;;
8652;SDS011;4364;52.426;9.424;2022-12-19T13:24:57;28.97;;;17.70;;
8652;SDS011;4364;52.426;9.424;2022-12-19T13:27:33;29.00;;;18.07;;
8652;SDS011;4364;52.426;9.424;2022-12-19T13:37:59;30.17;;;17.63;;
8652;SDS011;4364;52.426;9.424;2022-12-19T13:40:56;28.27;;;18.27;;
8652;SDS011;4364;52.426;9.424;2022-12-19T13:43:33;33.20;;;19.20;;
8652;SDS011;4364;52.426;9.424;2022-12-19T13:49:29;34.77;;;19.17;;
8652;SDS011;4364;52.426;9.424;2022-12-19T13:52:00;31.43;;;18.47;;
8652;SDS011;4364;52.426;9.424;2022-12-19T13:54:29;30.30;;;18.07;;
8652;SDS011;4364;52.426;9.424;2022-12-19T13:57:00;31.57;;;18.37;;
8652;SDS011;4364;52.426;9.424;2022-12-19T13:59:35;29.23;;;18.47;;
8652;SDS011;4364;52.426;9.424;2022-12-19T14:02:14;28.87;;;17.80;;
8652;SDS011;4364;52.426;9.424;2022-12-19T14:04:52;33.53;;;19.63;;
8652;SDS011;4364;52.426;9.424;2022-12-19T14:07:33;32.90;;;18.57;;
8652;SDS011;4364;52.426;9.424;2022-12-19T14:10:06;31.40;;;18.93;;
8652;SDS011;4364;52.426;9.424;2022-12-19T14:13:02;32.27;;;19.17;;
8652;SDS011;4364;52.426;9.424;2022-12-19T14:16:15;33.57;;;18.80;;
8652;SDS011;4364;52.426;9.424;2022-12-19T14:18:47;29.73;;;18.40;;
8652;SDS011;4364;52.426;9.424;2022-12-19T14:21:20;34.80;;;20.77;;
8652;SDS011;4364;52.426;9.424;2022-12-19T14:24:09;31.93;;;18.77;;
8652;SDS011;4364;52.426;9.424;2022-12-19T14:26:40;32.30;;;19.53;;
8652;SDS011;4364;52.426;9.424;2022-12-19T14:29:33;32.53;;;18.37;;
8652;SDS011;4364;52.426;9.424;2022-12-19T14:32:23;31.43;;;17.93;;
8652;SDS011;4364;52.426;9.424;2022-12-19T14:35:11;32.07;;;18.07;;
8652;SDS011;4364;52.426;9.424;2022-12-19T14:38:02;29.40;;;17.30;;
8652;SDS011;4364;52.426;9.424;2022-12-19T14:40:52;29.67;;;16.80;;
8652;SDS011;4364;52.426;9.424;2022-12-19T14:43:34;29.47;;;18.03;;
8652;SDS011;4364;52.426;9.424;2022-12-19T14:46:26;32.77;;;18.20;;
8652;SDS011;4364;52.426;9.424;2022-12-19T14:49:25;31.57;;;18.17;;
8652;SDS011;4364;52.426;9.424;2022-12-19T14:55:28;29.30;;;17.23;;
8652;SDS011;4364;52.426;9.424;2022-12-19T14:58:17;31.63;;;18.97;;
8652;SDS011;4364;52.426;9.424;2022-12-19T15:01:18;26.80;;;17.60;;
8652;SDS011;4364;52.426;9.424;2022-12-19T15:06:51;31.20;;;18.40;;
8652;SDS011;4364;52.426;9.424;2022-12-19T15:16:20;30.13;;;17.97;;
8652;SDS011;4364;52.426;9.424;2022-12-19T15:18:57;31.77;;;18.30;;
8652;SDS011;4364;52.426;9.424;2022-12-19T15:21:25;30.23;;;17.60;;
8652;SDS011;4364;52.426;9.424;2022-12-19T15:23:53;27.40;;;16.97;;
8652;SDS011;4364;52.426;9.424;2022-12-19T15:26:27;33.53;;;20.20;;
8652;SDS011;4364;52.426;9.424;2022-12-19T15:29:01;29.00;;;18.30;;
8652;SDS011;4364;52.426;9.424;2022-12-19T15:31:35;27.07;;;17.53;;
8652;SDS011;4364;52.426;9.424;2022-12-19T15:34:11;27.77;;;16.40;;
8652;SDS011;4364;52.426;9.424;2022-12-19T15:37:10;26.50;;;16.03;;
8652;SDS011;4364;52.426;9.424;2022-12-19T15:39:37;24.57;;;16.23;;
8652;SDS011;4364;52.426;9.424;2022-12-19T15:42:05;25.40;;;15.90;;
8652;SDS011;4364;52.426;9.424;2022-12-19T15:44:40;27.97;;;16.67;;
8652;SDS011;4364;52.426;9.424;2022-12-19T15:47:51;27.13;;;17.07;;
8652;SDS011;4364;52.426;9.424;2022-12-19T15:52:42;28.23;;;16.03;;
8652;SDS011;4364;52.426;9.424;2022-12-19T15:55:13;25.83;;;15.50;;
8652;SDS011;4364;52.426;9.424;2022-12-19T15:57:42;26.90;;;15.90;;
8652;SDS011;4364;52.426;9.424;2022-12-19T16:02:50;26.00;;;15.87;;
8652;SDS011;4364;52.426;9.424;2022-12-19T16:05:38;27.60;;;14.83;;
8652;SDS011;4364;52.426;9.424;2022-12-19T16:08:09;23.37;;;15.30;;
8652;SDS011;4364;52.426;9.424;2022-12-19T16:10:43;23.43;;;14.97;;
8652;SDS011;4364;52.426;9.424;2022-12-19T16:13:15;24.43;;;16.20;;
8652;SDS011;4364;52.426;9.424;2022-12-19T16:15:46;21.87;;;14.17;;
8652;SDS011;4364;52.426;9.424;2022-12-19T16:18:13;26.50;;;15.93;;
8652;SDS011;4364;52.426;9.424;2022-12-19T16:20:40;21.97;;;14.43;;
8652;SDS011;4364;52.426;9.424;2022-12-19T16:23:08;22.37;;;13.93;;
8652;SDS011;4364;52.426;9.424;2022-12-19T16:28:06;21.53;;;13.83;;
8652;SDS011;4364;52.426;9.424;2022-12-19T16:30:40;22.63;;;13.83;;
8652;SDS011;4364;52.426;9.424;2022-12-19T16:33:13;20.10;;;13.57;;
8652;SDS011;4364;52.426;9.424;2022-12-19T16:35:44;20.93;;;13.63;;
8652;SDS011;4364;52.426;9.424;2022-12-19T16:38:30;22.97;;;13.93;;
8652;SDS011;4364;52.426;9.424;2022-12-19T16:40:58;21.77;;;13.53;;
8652;SDS011;4364;52.426;9.424;2022-12-19T16:46:06;20.90;;;13.10;;
8652;SDS011;4364;52.426;9.424;2022-12-19T16:48:37;21.30;;;13.57;;
8652;SDS011;4364;52.426;9.424;2022-12-19T16:51:04;21.13;;;12.73;;
8652;SDS011;4364;52.426;9.424;2022-12-19T16:53:41;20.70;;;13.80;;
8652;SDS011;4364;52.426;9.424;2022-12-19T16:56:13;20.27;;;13.40;;
8652;SDS011;4364;52.426;9.424;2022-12-19T16:58:48;19.07;;;12.33;;
8652;SDS011;4364;52.426;9.424;2022-12-19T17:01:16;20.00;;;13.33;;
8652;SDS011;4364;52.426;9.424;2022-12-19T17:03:43;23.07;;;13.53;;
8652;SDS011;4364;52.426;9.424;2022-12-19T17:06:11;22.80;;;14.07;;
8652;SDS011;4364;52.426;9.424;2022-12-19T17:08:43;21.73;;;13.57;;
8652;SDS011;4364;52.426;9.424;2022-12-19T17:11:20;23.20;;;13.97;;
8652;SDS011;4364;52.426;9.424;2022-12-19T17:13:50;21.00;;;13.47;;
8652;SDS011;4364;52.426;9.424;2022-12-19T17:16:19;21.07;;;14.27;;
8652;SDS011;4364;52.426;9.424;2022-12-19T17:18:47;24.83;;;14.97;;
8652;SDS011;4364;52.426;9.424;2022-12-19T17:21:18;23.00;;;13.93;;
8652;SDS011;4364;52.426;9.424;2022-12-19T17:23:47;26.30;;;14.80;;
8652;SDS011;4364;52.426;9.424;2022-12-19T17:26:14;23.23;;;14.00;;
8652;SDS011;4364;52.426;9.424;2022-12-19T17:28:43;25.47;;;15.30;;
8652;SDS011;4364;52.426;9.424;2022-12-19T17:31:23;24.40;;;15.17;;
8652;SDS011;4364;52.426;9.424;2022-12-19T17:33:55;25.53;;;15.83;;
8652;SDS011;4364;52.426;9.424;2022-12-19T17:36:24;26.73;;;15.77;;
8652;SDS011;4364;52.426;9.424;2022-12-19T17:39:02;23.70;;;15.97;;
8652;SDS011;4364;52.426;9.424;2022-12-19T17:41:29;25.73;;;15.77;;
8652;SDS011;4364;52.426;9.424;2022-12-19T17:43:55;26.70;;;16.43;;
8652;SDS011;4364;52.426;9.424;2022-12-19T17:46:22;25.63;;;16.47;;
8652;SDS011;4364;52.426;9.424;2022-12-19T17:48:50;26.10;;;15.70;;
8652;SDS011;4364;52.426;9.424;2022-12-19T17:51:19;25.40;;;16.43;;
8652;SDS011;4364;52.426;9.424;2022-12-19T17:53:47;25.63;;;15.30;;
8652;SDS011;4364;52.426;9.424;2022-12-19T17:56:16;26.67;;;16.33;;